KUES Airport (Waukesha County) Information

FAA: UES - ICAO: KUES

KUES Airport Location

State Wisconsin
County Waukesha
City Waukesha
KUES Airport is 2 miles north of Waukesha, WI.
Latitude 43-02-27.7000N
Longitude 088-14-13.4000W
Elevation 911ft

KUES Airport METARs

METAR KUES 240935Z AUTO 27005KT 10SM CLR 09/07 A2995 RMK AO2
Altimeter 29.95"
Temperature 9.0°C (48.2°F)
Wind 270° at 5KT
Clouds Skies are clear.
Visibility 10.0mi
Time observed: 2021-09-24T09:35:00Z

KUES Airport Details

Status Operational
Activation September 1937
Ownership Public
Usage Public
Chart CHICAGO
ATC on-site Yes
Beacon schedule sunset-sunrise
Beacon color clear green

KUES Airport Contacts

Owner WAUKESHA COUNTY
Owner address 1320 PEWAUKEE ROAD, WAUKESHA, WI 53188
Owner phone 262-548-7010
Manager KEVIN BOWMAN
Manager address 11632 STATE HWY 32, SURING, WI 54174
Manager phone (920) 590-0259

KUES Airport (Waukesha County) Radio Frequencies

KUES (Airport) Radio Frequencies

UNICOM 122.95
Common traffic advisory frequency (CTAF) 123.7